sensor_id;sensor_type;location;lat;lon;timestamp;P1;durP1;ratioP1;P2;durP2;ratioP2
1949;SDS011;975;48.760;9.152;2023-11-21T00:01:12;3.05;;;1.10;;
1949;SDS011;975;48.760;9.152;2023-11-21T00:03:52;0.80;;;0.60;;
1949;SDS011;975;48.760;9.152;2023-11-21T00:06:40;4.28;;;0.82;;
1949;SDS011;975;48.760;9.152;2023-11-21T00:09:27;3.55;;;1.13;;
1949;SDS011;975;48.760;9.152;2023-11-21T00:11:58;5.10;;;1.35;;
1949;SDS011;975;48.760;9.152;2023-11-21T00:14:28;2.22;;;1.10;;
1949;SDS011;975;48.760;9.152;2023-11-21T00:16:59;5.35;;;1.00;;
1949;SDS011;975;48.760;9.152;2023-11-21T00:19:45;2.40;;;0.98;;
1949;SDS011;975;48.760;9.152;2023-11-21T00:22:14;4.60;;;1.70;;
1949;SDS011;975;48.760;9.152;2023-11-21T00:24:43;4.07;;;1.25;;
1949;SDS011;975;48.760;9.152;2023-11-21T00:27:29;4.95;;;1.20;;
1949;SDS011;975;48.760;9.152;2023-11-21T00:29:56;5.07;;;1.35;;
1949;SDS011;975;48.760;9.152;2023-11-21T00:32:24;1.75;;;0.73;;
1949;SDS011;975;48.760;9.152;2023-11-21T00:34:57;1.83;;;0.93;;
1949;SDS011;975;48.760;9.152;2023-11-21T00:37:45;2.90;;;1.13;;
1949;SDS011;975;48.760;9.152;2023-11-21T00:40:16;4.85;;;1.33;;
1949;SDS011;975;48.760;9.152;2023-11-21T00:42:47;2.20;;;0.98;;
1949;SDS011;975;48.760;9.152;2023-11-21T00:45:34;1.55;;;0.93;;
1949;SDS011;975;48.760;9.152;2023-11-21T00:48:02;6.50;;;1.27;;
1949;SDS011;975;48.760;9.152;2023-11-21T00:50:30;2.33;;;1.17;;
1949;SDS011;975;48.760;9.152;2023-11-21T00:53:17;4.30;;;1.13;;
1949;SDS011;975;48.760;9.152;2023-11-21T00:55:57;3.80;;;0.90;;
1949;SDS011;975;48.760;9.152;2023-11-21T00:58:25;3.22;;;1.08;;
1949;SDS011;975;48.760;9.152;2023-11-21T01:01:11;1.45;;;0.60;;
1949;SDS011;975;48.760;9.152;2023-11-21T01:03:53;2.30;;;0.98;;
1949;SDS011;975;48.760;9.152;2023-11-21T01:06:39;4.20;;;1.10;;
1949;SDS011;975;48.760;9.152;2023-11-21T01:09:29;1.80;;;0.75;;
1949;SDS011;975;48.760;9.152;2023-11-21T01:12:16;2.50;;;1.00;;
1949;SDS011;975;48.760;9.152;2023-11-21T01:15:05;3.95;;;0.90;;
1949;SDS011;975;48.760;9.152;2023-11-21T01:17:53;4.47;;;1.10;;
1949;SDS011;975;48.760;9.152;2023-11-21T01:20:41;5.22;;;0.93;;
1949;SDS011;975;48.760;9.152;2023-11-21T01:23:29;1.35;;;0.77;;
1949;SDS011;975;48.760;9.152;2023-11-21T01:26:18;5.03;;;1.08;;
1949;SDS011;975;48.760;9.152;2023-11-21T01:29:06;3.67;;;0.88;;
1949;SDS011;975;48.760;9.152;2023-11-21T01:31:54;1.65;;;0.90;;
1949;SDS011;975;48.760;9.152;2023-11-21T01:34:43;2.65;;;1.10;;
1949;SDS011;975;48.760;9.152;2023-11-21T01:37:30;1.13;;;0.73;;
1949;SDS011;975;48.760;9.152;2023-11-21T01:40:18;3.00;;;0.90;;
1949;SDS011;975;48.760;9.152;2023-11-21T01:43:08;1.38;;;0.65;;
1949;SDS011;975;48.760;9.152;2023-11-21T01:45:55;2.67;;;0.75;;
1949;SDS011;975;48.760;9.152;2023-11-21T01:48:43;1.20;;;0.80;;
1949;SDS011;975;48.760;9.152;2023-11-21T01:51:31;4.57;;;1.10;;
1949;SDS011;975;48.760;9.152;2023-11-21T01:54:19;3.55;;;0.95;;
1949;SDS011;975;48.760;9.152;2023-11-21T01:57:08;0.88;;;0.60;;
1949;SDS011;975;48.760;9.152;2023-11-21T01:59:57;4.57;;;1.15;;
1949;SDS011;975;48.760;9.152;2023-11-21T02:02:43;2.72;;;1.15;;
1949;SDS011;975;48.760;9.152;2023-11-21T02:05:10;2.42;;;0.90;;
1949;SDS011;975;48.760;9.152;2023-11-21T02:07:38;1.15;;;0.70;;
1949;SDS011;975;48.760;9.152;2023-11-21T02:10:06;1.25;;;0.93;;
1949;SDS011;975;48.760;9.152;2023-11-21T02:12:34;1.75;;;0.60;;
1949;SDS011;975;48.760;9.152;2023-11-21T02:15:03;1.85;;;0.60;;
1949;SDS011;975;48.760;9.152;2023-11-21T02:17:35;3.42;;;0.75;;
1949;SDS011;975;48.760;9.152;2023-11-21T02:20:02;2.03;;;0.70;;
1949;SDS011;975;48.760;9.152;2023-11-21T02:22:32;1.35;;;0.70;;
1949;SDS011;975;48.760;9.152;2023-11-21T02:25:02;3.00;;;0.75;;
1949;SDS011;975;48.760;9.152;2023-11-21T02:27:30;1.48;;;0.80;;
1949;SDS011;975;48.760;9.152;2023-11-21T02:29:57;4.43;;;1.00;;
1949;SDS011;975;48.760;9.152;2023-11-21T02:32:26;3.38;;;0.80;;
1949;SDS011;975;48.760;9.152;2023-11-21T02:34:57;2.45;;;0.80;;
1949;SDS011;975;48.760;9.152;2023-11-21T02:37:29;1.48;;;0.68;;
1949;SDS011;975;48.760;9.152;2023-11-21T02:39:56;1.73;;;0.77;;
1949;SDS011;975;48.760;9.152;2023-11-21T02:42:26;1.05;;;0.65;;
1949;SDS011;975;48.760;9.152;2023-11-21T02:44:53;3.42;;;0.80;;
1949;SDS011;975;48.760;9.152;2023-11-21T02:47:22;4.88;;;0.88;;
1949;SDS011;975;48.760;9.152;2023-11-21T02:49:50;2.03;;;0.90;;
1949;SDS011;975;48.760;9.152;2023-11-21T02:52:17;5.13;;;1.17;;
1949;SDS011;975;48.760;9.152;2023-11-21T02:54:45;3.65;;;0.70;;
1949;SDS011;975;48.760;9.152;2023-11-21T02:57:13;0.93;;;0.60;;
1949;SDS011;975;48.760;9.152;2023-11-21T02:59:42;2.20;;;0.60;;
1949;SDS011;975;48.760;9.152;2023-11-21T03:02:09;4.63;;;0.68;;
1949;SDS011;975;48.760;9.152;2023-11-21T03:04:37;1.40;;;0.55;;
1949;SDS011;975;48.760;9.152;2023-11-21T03:07:05;1.80;;;0.60;;
1949;SDS011;975;48.760;9.152;2023-11-21T03:09:35;3.55;;;0.73;;
1949;SDS011;975;48.760;9.152;2023-11-21T03:12:03;2.88;;;0.90;;
1949;SDS011;975;48.760;9.152;2023-11-21T03:14:30;2.97;;;1.10;;
1949;SDS011;975;48.760;9.152;2023-11-21T03:16:59;3.50;;;0.88;;
1949;SDS011;975;48.760;9.152;2023-11-21T03:19:27;1.65;;;0.60;;
1949;SDS011;975;48.760;9.152;2023-11-21T03:21:54;1.25;;;0.60;;
1949;SDS011;975;48.760;9.152;2023-11-21T03:24:22;1.20;;;0.52;;
1949;SDS011;975;48.760;9.152;2023-11-21T03:26:49;4.47;;;0.50;;
1949;SDS011;975;48.760;9.152;2023-11-21T03:29:17;1.85;;;0.52;;
1949;SDS011;975;48.760;9.152;2023-11-21T03:31:44;1.40;;;0.60;;
1949;SDS011;975;48.760;9.152;2023-11-21T03:34:19;2.35;;;0.40;;
1949;SDS011;975;48.760;9.152;2023-11-21T03:36:47;1.25;;;0.30;;
1949;SDS011;975;48.760;9.152;2023-11-21T03:39:14;1.70;;;0.50;;
1949;SDS011;975;48.760;9.152;2023-11-21T03:41:42;3.13;;;0.60;;
1949;SDS011;975;48.760;9.152;2023-11-21T03:44:09;1.13;;;0.43;;
1949;SDS011;975;48.760;9.152;2023-11-21T03:46:37;0.85;;;0.55;;
1949;SDS011;975;48.760;9.152;2023-11-21T03:49:04;1.40;;;0.70;;
1949;SDS011;975;48.760;9.152;2023-11-21T03:51:34;0.93;;;0.43;;
1949;SDS011;975;48.760;9.152;2023-11-21T03:54:02;0.95;;;0.50;;
1949;SDS011;975;48.760;9.152;2023-11-21T03:56:29;0.90;;;0.35;;
1949;SDS011;975;48.760;9.152;2023-11-21T03:58:57;1.42;;;0.32;;
1949;SDS011;975;48.760;9.152;2023-11-21T04:01:24;3.83;;;0.40;;
1949;SDS011;975;48.760;9.152;2023-11-21T04:03:52;1.27;;;0.50;;
1949;SDS011;975;48.760;9.152;2023-11-21T04:06:19;1.85;;;1.25;;
1949;SDS011;975;48.760;9.152;2023-11-21T04:08:48;1.80;;;0.38;;
1949;SDS011;975;48.760;9.152;2023-11-21T04:11:16;1.52;;;0.30;;
1949;SDS011;975;48.760;9.152;2023-11-21T04:13:43;0.68;;;0.63;;
1949;SDS011;975;48.760;9.152;2023-11-21T04:16:12;0.77;;;0.57;;
1949;SDS011;975;48.760;9.152;2023-11-21T04:18:40;0.63;;;0.50;;
1949;SDS011;975;48.760;9.152;2023-11-21T04:21:07;0.75;;;0.30;;
1949;SDS011;975;48.760;9.152;2023-11-21T04:23:35;0.75;;;0.70;;
1949;SDS011;975;48.760;9.152;2023-11-21T04:26:04;1.05;;;0.47;;
1949;SDS011;975;48.760;9.152;2023-11-21T04:28:32;1.80;;;0.60;;
1949;SDS011;975;48.760;9.152;2023-11-21T04:31:00;1.13;;;0.40;;
1949;SDS011;975;48.760;9.152;2023-11-21T04:33:27;0.52;;;0.52;;
1949;SDS011;975;48.760;9.152;2023-11-21T04:35:55;1.88;;;0.55;;
1949;SDS011;975;48.760;9.152;2023-11-21T04:38:23;0.85;;;0.50;;
1949;SDS011;975;48.760;9.152;2023-11-21T04:40:51;1.42;;;0.50;;
1949;SDS011;975;48.760;9.152;2023-11-21T04:43:20;1.52;;;0.43;;
1949;SDS011;975;48.760;9.152;2023-11-21T04:45:47;0.88;;;0.28;;
1949;SDS011;975;48.760;9.152;2023-11-21T04:48:15;0.32;;;0.28;;
1949;SDS011;975;48.760;9.152;2023-11-21T04:50:43;2.05;;;0.40;;
1949;SDS011;975;48.760;9.152;2023-11-21T04:53:10;1.05;;;0.20;;
1949;SDS011;975;48.760;9.152;2023-11-21T04:55:40;1.40;;;0.47;;
1949;SDS011;975;48.760;9.152;2023-11-21T04:58:08;4.05;;;0.60;;
1949;SDS011;975;48.760;9.152;2023-11-21T05:00:37;0.35;;;0.32;;
1949;SDS011;975;48.760;9.152;2023-11-21T05:03:04;3.83;;;0.70;;
1949;SDS011;975;48.760;9.152;2023-11-21T05:05:32;1.88;;;0.35;;
1949;SDS011;975;48.760;9.152;2023-11-21T05:08:00;3.38;;;0.55;;
1949;SDS011;975;48.760;9.152;2023-11-21T05:10:27;0.13;;;0.10;;
1949;SDS011;975;48.760;9.152;2023-11-21T05:12:55;0.63;;;0.63;;
1949;SDS011;975;48.760;9.152;2023-11-21T05:15:23;0.90;;;0.40;;
1949;SDS011;975;48.760;9.152;2023-11-21T05:17:54;0.80;;;0.28;;
1949;SDS011;975;48.760;9.152;2023-11-21T05:20:25;0.30;;;0.28;;
1949;SDS011;975;48.760;9.152;2023-11-21T05:22:53;1.35;;;0.28;;
1949;SDS011;975;48.760;9.152;2023-11-21T05:25:20;1.80;;;0.60;;
1949;SDS011;975;48.760;9.152;2023-11-21T05:27:48;1.55;;;0.30;;
1949;SDS011;975;48.760;9.152;2023-11-21T05:30:15;0.40;;;0.30;;
1949;SDS011;975;48.760;9.152;2023-11-21T05:32:43;1.58;;;0.43;;
1949;SDS011;975;48.760;9.152;2023-11-21T05:35:13;1.83;;;0.22;;
1949;SDS011;975;48.760;9.152;2023-11-21T05:37:41;0.35;;;0.35;;
1949;SDS011;975;48.760;9.152;2023-11-21T05:40:09;0.47;;;0.32;;
1949;SDS011;975;48.760;9.152;2023-11-21T05:42:38;0.60;;;0.40;;
1949;SDS011;975;48.760;9.152;2023-11-21T05:45:06;0.22;;;0.22;;
1949;SDS011;975;48.760;9.152;2023-11-21T05:47:36;0.90;;;0.52;;
1949;SDS011;975;48.760;9.152;2023-11-21T05:50:05;0.32;;;0.32;;
1949;SDS011;975;48.760;9.152;2023-11-21T05:55:04;1.42;;;0.30;;
1949;SDS011;975;48.760;9.152;2023-11-21T05:57:33;4.43;;;0.65;;
1949;SDS011;975;48.760;9.152;2023-11-21T06:00:02;0.95;;;0.40;;
1949;SDS011;975;48.760;9.152;2023-11-21T06:02:36;5.15;;;0.30;;
1949;SDS011;975;48.760;9.152;2023-11-21T06:05:05;2.45;;;0.68;;
1949;SDS011;975;48.760;9.152;2023-11-21T06:07:32;1.08;;;0.40;;
1949;SDS011;975;48.760;9.152;2023-11-21T06:10:01;3.22;;;0.65;;
1949;SDS011;975;48.760;9.152;2023-11-21T06:12:33;1.13;;;0.20;;
1949;SDS011;975;48.760;9.152;2023-11-21T06:15:01;0.63;;;0.40;;
1949;SDS011;975;48.760;9.152;2023-11-21T06:17:30;1.60;;;0.28;;
1949;SDS011;975;48.760;9.152;2023-11-21T06:19:58;0.65;;;0.40;;
1949;SDS011;975;48.760;9.152;2023-11-21T06:22:26;0.98;;;0.35;;
1949;SDS011;975;48.760;9.152;2023-11-21T06:24:55;1.65;;;0.40;;
1949;SDS011;975;48.760;9.152;2023-11-21T06:27:23;2.35;;;0.57;;
1949;SDS011;975;48.760;9.152;2023-11-21T06:29:52;0.73;;;0.40;;
1949;SDS011;975;48.760;9.152;2023-11-21T06:32:20;1.10;;;0.50;;
1949;SDS011;975;48.760;9.152;2023-11-21T06:34:48;0.90;;;0.32;;
1949;SDS011;975;48.760;9.152;2023-11-21T06:37:15;1.33;;;0.57;;
1949;SDS011;975;48.760;9.152;2023-11-21T06:39:43;1.92;;;0.52;;
1949;SDS011;975;48.760;9.152;2023-11-21T06:42:10;1.95;;;0.30;;
1949;SDS011;975;48.760;9.152;2023-11-21T06:44:38;2.40;;;0.60;;
1949;SDS011;975;48.760;9.152;2023-11-21T06:47:08;3.40;;;0.50;;
1949;SDS011;975;48.760;9.152;2023-11-21T06:49:36;0.32;;;0.32;;
1949;SDS011;975;48.760;9.152;2023-11-21T06:52:03;2.20;;;0.63;;
1949;SDS011;975;48.760;9.152;2023-11-21T06:54:31;1.00;;;0.65;;
1949;SDS011;975;48.760;9.152;2023-11-21T06:56:59;3.50;;;0.70;;
1949;SDS011;975;48.760;9.152;2023-11-21T06:59:28;2.38;;;0.90;;
1949;SDS011;975;48.760;9.152;2023-11-21T07:01:56;1.95;;;0.70;;
1949;SDS011;975;48.760;9.152;2023-11-21T07:04:24;0.50;;;0.40;;
1949;SDS011;975;48.760;9.152;2023-11-21T07:06:52;1.02;;;0.50;;
1949;SDS011;975;48.760;9.152;2023-11-21T07:09:20;0.95;;;0.50;;
1949;SDS011;975;48.760;9.152;2023-11-21T07:11:47;3.78;;;0.73;;
1949;SDS011;975;48.760;9.152;2023-11-21T07:14:15;2.50;;;1.17;;
1949;SDS011;975;48.760;9.152;2023-11-21T07:16:45;0.90;;;0.60;;
1949;SDS011;975;48.760;9.152;2023-11-21T07:19:12;1.23;;;0.80;;
1949;SDS011;975;48.760;9.152;2023-11-21T07:21:41;2.22;;;0.88;;
1949;SDS011;975;48.760;9.152;2023-11-21T07:24:09;1.52;;;0.82;;
1949;SDS011;975;48.760;9.152;2023-11-21T07:26:37;2.53;;;0.70;;
1949;SDS011;975;48.760;9.152;2023-11-21T07:29:04;0.98;;;0.80;;
1949;SDS011;975;48.760;9.152;2023-11-21T07:31:32;1.00;;;0.90;;
1949;SDS011;975;48.760;9.152;2023-11-21T07:34:00;1.70;;;0.68;;
1949;SDS011;975;48.760;9.152;2023-11-21T07:36:28;2.00;;;0.90;;
1949;SDS011;975;48.760;9.152;2023-11-21T07:38:57;1.15;;;0.80;;
1949;SDS011;975;48.760;9.152;2023-11-21T07:41:24;1.20;;;0.80;;
1949;SDS011;975;48.760;9.152;2023-11-21T07:43:52;1.02;;;0.68;;
1949;SDS011;975;48.760;9.152;2023-11-21T07:46:21;0.93;;;0.55;;
1949;SDS011;975;48.760;9.152;2023-11-21T07:48:49;1.23;;;0.68;;
1949;SDS011;975;48.760;9.152;2023-11-21T07:51:17;0.70;;;0.60;;
1949;SDS011;975;48.760;9.152;2023-11-21T07:53:45;1.63;;;0.60;;
1949;SDS011;975;48.760;9.152;2023-11-21T07:56:14;1.58;;;0.60;;
1949;SDS011;975;48.760;9.152;2023-11-21T07:58:41;1.67;;;0.73;;
1949;SDS011;975;48.760;9.152;2023-11-21T08:01:09;3.17;;;0.80;;
1949;SDS011;975;48.760;9.152;2023-11-21T08:03:37;0.70;;;0.70;;
1949;SDS011;975;48.760;9.152;2023-11-21T08:06:05;0.90;;;0.75;;
1949;SDS011;975;48.760;9.152;2023-11-21T08:08:32;4.50;;;1.10;;
1949;SDS011;975;48.760;9.152;2023-11-21T08:11:00;1.90;;;1.00;;
1949;SDS011;975;48.760;9.152;2023-11-21T08:13:31;3.13;;;1.42;;
1949;SDS011;975;48.760;9.152;2023-11-21T08:15:58;1.95;;;0.80;;
1949;SDS011;975;48.760;9.152;2023-11-21T08:18:28;3.15;;;1.90;;
1949;SDS011;975;48.760;9.152;2023-11-21T08:20:56;1.30;;;0.65;;
1949;SDS011;975;48.760;9.152;2023-11-21T08:23:23;1.17;;;0.80;;
1949;SDS011;975;48.760;9.152;2023-11-21T08:25:51;1.70;;;0.90;;
1949;SDS011;975;48.760;9.152;2023-11-21T08:28:19;1.67;;;0.65;;
1949;SDS011;975;48.760;9.152;2023-11-21T08:30:49;1.27;;;0.68;;
1949;SDS011;975;48.760;9.152;2023-11-21T08:33:16;1.40;;;0.80;;
1949;SDS011;975;48.760;9.152;2023-11-21T08:35:44;1.80;;;0.70;;
1949;SDS011;975;48.760;9.152;2023-11-21T08:38:12;1.55;;;1.10;;
1949;SDS011;975;48.760;9.152;2023-11-21T08:40:39;2.03;;;0.70;;
1949;SDS011;975;48.760;9.152;2023-11-21T08:43:07;0.85;;;0.70;;
1949;SDS011;975;48.760;9.152;2023-11-21T08:45:34;0.93;;;0.65;;
1949;SDS011;975;48.760;9.152;2023-11-21T08:48:04;1.10;;;0.60;;
1949;SDS011;975;48.760;9.152;2023-11-21T08:50:31;1.35;;;0.70;;
1949;SDS011;975;48.760;9.152;2023-11-21T08:52:59;1.60;;;0.80;;
1949;SDS011;975;48.760;9.152;2023-11-21T08:55:27;1.58;;;0.80;;
1949;SDS011;975;48.760;9.152;2023-11-21T08:57:55;1.17;;;0.55;;
1949;SDS011;975;48.760;9.152;2023-11-21T09:00:24;1.35;;;0.63;;
1949;SDS011;975;48.760;9.152;2023-11-21T09:02:52;2.78;;;1.50;;
1949;SDS011;975;48.760;9.152;2023-11-21T09:05:21;0.50;;;0.50;;
1949;SDS011;975;48.760;9.152;2023-11-21T09:07:48;0.75;;;0.50;;
1949;SDS011;975;48.760;9.152;2023-11-21T09:10:16;0.77;;;0.63;;
1949;SDS011;975;48.760;9.152;2023-11-21T09:12:44;1.30;;;0.85;;
1949;SDS011;975;48.760;9.152;2023-11-21T09:15:12;1.23;;;0.68;;
1949;SDS011;975;48.760;9.152;2023-11-21T09:17:40;1.25;;;0.63;;
1949;SDS011;975;48.760;9.152;2023-11-21T09:20:09;0.35;;;0.35;;
1949;SDS011;975;48.760;9.152;2023-11-21T09:22:38;1.00;;;0.70;;
1949;SDS011;975;48.760;9.152;2023-11-21T09:25:06;0.85;;;0.50;;
1949;SDS011;975;48.760;9.152;2023-11-21T09:27:34;1.05;;;0.52;;
1949;SDS011;975;48.760;9.152;2023-11-21T09:30:02;1.25;;;0.60;;
1949;SDS011;975;48.760;9.152;2023-11-21T09:32:30;4.40;;;0.65;;
1949;SDS011;975;48.760;9.152;2023-11-21T09:34:58;0.93;;;0.65;;
1949;SDS011;975;48.760;9.152;2023-11-21T09:37:27;1.00;;;0.38;;
1949;SDS011;975;48.760;9.152;2023-11-21T09:39:56;0.90;;;0.60;;
1949;SDS011;975;48.760;9.152;2023-11-21T09:42:25;0.70;;;0.70;;
1949;SDS011;975;48.760;9.152;2023-11-21T09:44:58;2.20;;;0.70;;
1949;SDS011;975;48.760;9.152;2023-11-21T09:47:27;2.15;;;0.60;;
1949;SDS011;975;48.760;9.152;2023-11-21T09:49:54;2.50;;;0.43;;
1949;SDS011;975;48.760;9.152;2023-11-21T09:52:26;0.60;;;0.50;;
1949;SDS011;975;48.760;9.152;2023-11-21T09:54:56;1.50;;;0.60;;
1949;SDS011;975;48.760;9.152;2023-11-21T09:57:24;2.72;;;0.52;;
1949;SDS011;975;48.760;9.152;2023-11-21T09:59:51;0.45;;;0.30;;
1949;SDS011;975;48.760;9.152;2023-11-21T10:02:22;3.03;;;0.70;;
1949;SDS011;975;48.760;9.152;2023-11-21T10:04:53;0.50;;;0.28;;
1949;SDS011;975;48.760;9.152;2023-11-21T10:07:22;2.60;;;0.43;;
1949;SDS011;975;48.760;9.152;2023-11-21T10:09:50;0.50;;;0.30;;
1949;SDS011;975;48.760;9.152;2023-11-21T10:12:19;0.22;;;0.22;;
1949;SDS011;975;48.760;9.152;2023-11-21T10:14:48;0.75;;;0.43;;
1949;SDS011;975;48.760;9.152;2023-11-21T10:17:18;0.80;;;0.40;;
1949;SDS011;975;48.760;9.152;2023-11-21T10:19:46;3.03;;;0.55;;
1949;SDS011;975;48.760;9.152;2023-11-21T10:22:14;0.45;;;0.30;;
1949;SDS011;975;48.760;9.152;2023-11-21T10:24:42;1.45;;;0.30;;
1949;SDS011;975;48.760;9.152;2023-11-21T10:27:10;0.43;;;0.30;;
1949;SDS011;975;48.760;9.152;2023-11-21T10:29:40;0.40;;;0.30;;
1949;SDS011;975;48.760;9.152;2023-11-21T10:32:07;0.68;;;0.30;;
1949;SDS011;975;48.760;9.152;2023-11-21T10:34:35;0.65;;;0.40;;
1949;SDS011;975;48.760;9.152;2023-11-21T10:37:10;0.30;;;0.30;;
1949;SDS011;975;48.760;9.152;2023-11-21T10:39:38;0.40;;;0.40;;
1949;SDS011;975;48.760;9.152;2023-11-21T10:42:07;0.52;;;0.28;;
1949;SDS011;975;48.760;9.152;2023-11-21T10:44:35;0.55;;;0.30;;
1949;SDS011;975;48.760;9.152;2023-11-21T10:47:04;1.65;;;0.38;;
1949;SDS011;975;48.760;9.152;2023-11-21T10:49:32;0.50;;;0.40;;
1949;SDS011;975;48.760;9.152;2023-11-21T10:51:59;0.85;;;0.28;;
1949;SDS011;975;48.760;9.152;2023-11-21T10:54:28;1.67;;;0.35;;
1949;SDS011;975;48.760;9.152;2023-11-21T10:56:56;0.77;;;0.40;;
1949;SDS011;975;48.760;9.152;2023-11-21T10:59:25;1.77;;;0.43;;
1949;SDS011;975;48.760;9.152;2023-11-21T11:01:52;3.72;;;0.40;;
1949;SDS011;975;48.760;9.152;2023-11-21T11:04:22;1.02;;;0.80;;
1949;SDS011;975;48.760;9.152;2023-11-21T11:06:54;0.60;;;0.60;;
1949;SDS011;975;48.760;9.152;2023-11-21T11:09:21;2.85;;;0.65;;
1949;SDS011;975;48.760;9.152;2023-11-21T11:11:49;0.45;;;0.43;;
1949;SDS011;975;48.760;9.152;2023-11-21T11:14:18;3.05;;;0.60;;
1949;SDS011;975;48.760;9.152;2023-11-21T11:16:50;0.63;;;0.30;;
1949;SDS011;975;48.760;9.152;2023-11-21T11:19:19;1.40;;;0.50;;
1949;SDS011;975;48.760;9.152;2023-11-21T11:21:51;0.32;;;0.30;;
1949;SDS011;975;48.760;9.152;2023-11-21T11:27:11;0.50;;;0.40;;
1949;SDS011;975;48.760;9.152;2023-11-21T11:29:49;1.90;;;0.50;;
1949;SDS011;975;48.760;9.152;2023-11-21T11:32:21;1.15;;;0.30;;
1949;SDS011;975;48.760;9.152;2023-11-21T11:34:53;0.82;;;0.30;;
1949;SDS011;975;48.760;9.152;2023-11-21T11:37:25;0.57;;;0.30;;
1949;SDS011;975;48.760;9.152;2023-11-21T11:39:53;0.75;;;0.45;;
1949;SDS011;975;48.760;9.152;2023-11-21T11:42:22;0.93;;;0.30;;
1949;SDS011;975;48.760;9.152;2023-11-21T11:44:51;1.35;;;0.52;;
1949;SDS011;975;48.760;9.152;2023-11-21T11:47:20;0.65;;;0.47;;
1949;SDS011;975;48.760;9.152;2023-11-21T11:49:58;0.50;;;0.32;;
1949;SDS011;975;48.760;9.152;2023-11-21T11:52:34;0.30;;;0.30;;
1949;SDS011;975;48.760;9.152;2023-11-21T11:55:02;0.63;;;0.40;;
1949;SDS011;975;48.760;9.152;2023-11-21T11:57:30;0.55;;;0.45;;
1949;SDS011;975;48.760;9.152;2023-11-21T12:00:14;0.50;;;0.40;;
1949;SDS011;975;48.760;9.152;2023-11-21T12:02:43;0.75;;;0.50;;
1949;SDS011;975;48.760;9.152;2023-11-21T12:05:13;1.52;;;0.38;;
1949;SDS011;975;48.760;9.152;2023-11-21T12:07:43;0.82;;;0.40;;
1949;SDS011;975;48.760;9.152;2023-11-21T12:10:12;0.77;;;0.60;;
1949;SDS011;975;48.760;9.152;2023-11-21T12:12:43;1.52;;;0.55;;
1949;SDS011;975;48.760;9.152;2023-11-21T12:15:11;0.40;;;0.40;;
1949;SDS011;975;48.760;9.152;2023-11-21T12:17:39;0.35;;;0.30;;
1949;SDS011;975;48.760;9.152;2023-11-21T12:20:07;0.60;;;0.52;;
1949;SDS011;975;48.760;9.152;2023-11-21T12:22:42;1.08;;;0.60;;
1949;SDS011;975;48.760;9.152;2023-11-21T12:25:10;0.45;;;0.45;;
1949;SDS011;975;48.760;9.152;2023-11-21T12:27:42;0.55;;;0.47;;
1949;SDS011;975;48.760;9.152;2023-11-21T12:30:11;2.90;;;0.70;;
1949;SDS011;975;48.760;9.152;2023-11-21T12:32:41;2.17;;;0.50;;
1949;SDS011;975;48.760;9.152;2023-11-21T12:35:09;2.35;;;0.80;;
1949;SDS011;975;48.760;9.152;2023-11-21T12:37:37;1.40;;;0.70;;
1949;SDS011;975;48.760;9.152;2023-11-21T12:40:07;1.08;;;0.80;;
1949;SDS011;975;48.760;9.152;2023-11-21T12:42:37;1.05;;;0.80;;
1949;SDS011;975;48.760;9.152;2023-11-21T12:45:08;1.08;;;0.73;;
1949;SDS011;975;48.760;9.152;2023-11-21T12:47:40;0.80;;;0.60;;
1949;SDS011;975;48.760;9.152;2023-11-21T12:50:08;0.65;;;0.63;;
1949;SDS011;975;48.760;9.152;2023-11-21T12:52:40;1.25;;;0.70;;
1949;SDS011;975;48.760;9.152;2023-11-21T12:55:11;0.77;;;0.60;;
1949;SDS011;975;48.760;9.152;2023-11-21T12:57:41;1.45;;;0.50;;
1949;SDS011;975;48.760;9.152;2023-11-21T13:00:10;1.10;;;0.47;;
1949;SDS011;975;48.760;9.152;2023-11-21T13:02:41;2.00;;;0.85;;
1949;SDS011;975;48.760;9.152;2023-11-21T13:05:08;0.75;;;0.60;;
1949;SDS011;975;48.760;9.152;2023-11-21T13:07:46;2.03;;;0.65;;
1949;SDS011;975;48.760;9.152;2023-11-21T13:10:17;0.60;;;0.60;;
1949;SDS011;975;48.760;9.152;2023-11-21T13:12:45;0.80;;;0.63;;
1949;SDS011;975;48.760;9.152;2023-11-21T13:15:13;1.15;;;0.80;;
1949;SDS011;975;48.760;9.152;2023-11-21T13:17:42;0.57;;;0.57;;
1949;SDS011;975;48.760;9.152;2023-11-21T13:20:11;0.55;;;0.50;;
1949;SDS011;975;48.760;9.152;2023-11-21T13:22:45;0.68;;;0.60;;
1949;SDS011;975;48.760;9.152;2023-11-21T13:25:12;0.50;;;0.50;;
1949;SDS011;975;48.760;9.152;2023-11-21T13:27:42;0.70;;;0.50;;
1949;SDS011;975;48.760;9.152;2023-11-21T13:30:11;0.70;;;0.70;;
1949;SDS011;975;48.760;9.152;2023-11-21T13:32:42;0.40;;;0.40;;
1949;SDS011;975;48.760;9.152;2023-11-21T13:35:10;2.08;;;0.47;;
1949;SDS011;975;48.760;9.152;2023-11-21T13:37:49;0.20;;;0.20;;
1949;SDS011;975;48.760;9.152;2023-11-21T13:40:21;0.25;;;0.20;;
1949;SDS011;975;48.760;9.152;2023-11-21T13:42:53;0.65;;;0.20;;
1949;SDS011;975;48.760;9.152;2023-11-21T13:45:24;1.95;;;0.20;;
1949;SDS011;975;48.760;9.152;2023-11-21T13:47:53;0.30;;;0.20;;
1949;SDS011;975;48.760;9.152;2023-11-21T13:50:24;1.00;;;0.28;;
1949;SDS011;975;48.760;9.152;2023-11-21T13:52:58;2.33;;;0.47;;
1949;SDS011;975;48.760;9.152;2023-11-21T13:55:28;0.57;;;0.30;;
1949;SDS011;975;48.760;9.152;2023-11-21T13:57:58;0.82;;;0.55;;
1949;SDS011;975;48.760;9.152;2023-11-21T14:00:25;0.50;;;0.50;;
1949;SDS011;975;48.760;9.152;2023-11-21T14:03:11;2.25;;;0.50;;
1949;SDS011;975;48.760;9.152;2023-11-21T14:05:47;2.28;;;0.60;;
1949;SDS011;975;48.760;9.152;2023-11-21T14:08:17;1.02;;;0.52;;
1949;SDS011;975;48.760;9.152;2023-11-21T14:10:46;1.98;;;0.52;;
1949;SDS011;975;48.760;9.152;2023-11-21T14:13:22;1.20;;;0.80;;
1949;SDS011;975;48.760;9.152;2023-11-21T14:15:50;0.43;;;0.43;;
1949;SDS011;975;48.760;9.152;2023-11-21T14:18:23;0.88;;;0.57;;
1949;SDS011;975;48.760;9.152;2023-11-21T14:20:56;0.85;;;0.52;;
1949;SDS011;975;48.760;9.152;2023-11-21T14:23:23;1.58;;;0.75;;
1949;SDS011;975;48.760;9.152;2023-11-21T14:25:51;4.43;;;0.90;;
1949;SDS011;975;48.760;9.152;2023-11-21T14:28:18;1.20;;;0.93;;
1949;SDS011;975;48.760;9.152;2023-11-21T14:30:47;2.45;;;1.00;;
1949;SDS011;975;48.760;9.152;2023-11-21T14:33:14;0.98;;;0.75;;
1949;SDS011;975;48.760;9.152;2023-11-21T14:35:42;1.30;;;1.00;;
1949;SDS011;975;48.760;9.152;2023-11-21T14:38:10;1.42;;;0.80;;
1949;SDS011;975;48.760;9.152;2023-11-21T14:40:39;1.90;;;1.10;;
1949;SDS011;975;48.760;9.152;2023-11-21T14:43:07;1.50;;;0.95;;
1949;SDS011;975;48.760;9.152;2023-11-21T14:45:34;1.67;;;0.95;;
1949;SDS011;975;48.760;9.152;2023-11-21T14:48:03;2.97;;;0.90;;
1949;SDS011;975;48.760;9.152;2023-11-21T14:50:41;1.60;;;0.90;;
1949;SDS011;975;48.760;9.152;2023-11-21T14:53:36;3.75;;;1.30;;
1949;SDS011;975;48.760;9.152;2023-11-21T14:56:18;1.63;;;0.98;;
1949;SDS011;975;48.760;9.152;2023-11-21T14:58:52;1.80;;;1.08;;
1949;SDS011;975;48.760;9.152;2023-11-21T15:01:21;1.65;;;1.00;;
1949;SDS011;975;48.760;9.152;2023-11-21T15:04:02;4.13;;;1.20;;
1949;SDS011;975;48.760;9.152;2023-11-21T15:08:58;1.30;;;0.85;;
1949;SDS011;975;48.760;9.152;2023-11-21T15:11:54;3.50;;;1.08;;
1949;SDS011;975;48.760;9.152;2023-11-21T15:14:28;4.57;;;1.48;;
1949;SDS011;975;48.760;9.152;2023-11-21T15:16:57;1.70;;;1.00;;
1949;SDS011;975;48.760;9.152;2023-11-21T15:19:27;1.83;;;1.00;;
1949;SDS011;975;48.760;9.152;2023-11-21T15:21:57;1.92;;;1.40;;
1949;SDS011;975;48.760;9.152;2023-11-21T15:24:24;1.33;;;1.00;;
1949;SDS011;975;48.760;9.152;2023-11-21T15:26:52;1.75;;;1.10;;
1949;SDS011;975;48.760;9.152;2023-11-21T15:29:20;1.30;;;1.20;;
1949;SDS011;975;48.760;9.152;2023-11-21T15:31:47;2.97;;;1.30;;
1949;SDS011;975;48.760;9.152;2023-11-21T15:34:15;2.58;;;1.17;;
1949;SDS011;975;48.760;9.152;2023-11-21T15:36:44;3.30;;;1.30;;
1949;SDS011;975;48.760;9.152;2023-11-21T15:39:14;5.70;;;1.30;;
1949;SDS011;975;48.760;9.152;2023-11-21T15:41:43;2.40;;;1.50;;
1949;SDS011;975;48.760;9.152;2023-11-21T15:44:12;1.83;;;1.33;;
1949;SDS011;975;48.760;9.152;2023-11-21T15:46:39;2.95;;;1.67;;
1949;SDS011;975;48.760;9.152;2023-11-21T15:49:07;3.15;;;1.60;;
1949;SDS011;975;48.760;9.152;2023-11-21T15:51:38;4.70;;;1.80;;
1949;SDS011;975;48.760;9.152;2023-11-21T15:54:07;2.15;;;1.52;;
1949;SDS011;975;48.760;9.152;2023-11-21T15:56:35;4.22;;;1.60;;
1949;SDS011;975;48.760;9.152;2023-11-21T15:59:02;2.28;;;1.67;;